»·PEaware :: N1JG KDEN-KASE

N1JG :: KDEN-KASE

FLIGHT INFORMATION

Flight Status: Arrived
Operator: Privately registered:
United States
More flights under this callsign
Pilot: Josh G. (4619)
Aircraft: AIRBUS A320
(A320)
More flights by this aircraft type
Origin: KDEN Denver Intl
United States
Destination: KASE Aspen-Pitkin Co/Sardy
United States
More flights between these airports :: More routes between these airports
Route: CONNR3 DBL
File this flight plan on PilotEdge
Remarks: Twitch...Cheeriooooo
Altitude:
(Current/Filed)
20,000ft
Speed:
(Current/Filed)
450kts
Departed: 07-Jan-17 05:04 PM
Arrived: 07-Jan-17 05:28 PM
Distance/Time
Traveled:
109nm/0:24
Distance/Time
To Go:
Arrived

Flight Plot

Page will automatically refresh every two minutes.


Map Options




Map Legend


Flown Route
Filed Route
Departure Airport
Arrival Airport
Navaid (VOR, NDB)
Fix

Horizontal Profiles

Position Reports

Time Latitude Longitude Heading Altitude Ground
Speed
07-Jan-17 16:31 39.859389 -104.676881 179 5440ft 0kts
07-Jan-17 16:32 39.859389 -104.676881 179 5440ft 0kts
07-Jan-17 16:33 39.859389 -104.676881 179 5440ft 0kts
07-Jan-17 16:34 39.859389 -104.676881 179 5440ft 0kts
07-Jan-17 16:35 39.859389 -104.676881 179 5440ft 0kts
07-Jan-17 16:36 39.859389 -104.676881 179 5440ft 0kts
07-Jan-17 16:37 39.859389 -104.676881 179 5440ft 0kts
07-Jan-17 16:38 39.859389 -104.676881 179 5440ft 0kts
07-Jan-17 16:39 39.859389 -104.676881 179 5440ft 0kts
07-Jan-17 16:40 39.859389 -104.676881 179 5440ft 0kts
07-Jan-17 16:41 39.859389 -104.676881 179 5440ft 0kts
07-Jan-17 16:42 39.859389 -104.676881 179 5440ft 0kts
07-Jan-17 16:43 39.859389 -104.676881 179 5440ft 0kts
07-Jan-17 16:44 39.859389 -104.676881 179 5440ft 0kts
07-Jan-17 16:45 39.859389 -104.676881 179 5440ft 0kts
07-Jan-17 16:46 39.859389 -104.676881 179 5440ft 0kts
07-Jan-17 16:47 39.859389 -104.676881 179 5440ft 0kts
07-Jan-17 16:48 39.859389 -104.676881 179 5440ft 0kts
07-Jan-17 16:49 39.860050 -104.676673 257 5440ft 0kts
07-Jan-17 16:50 39.860061 -104.676466 268 5439ft 0kts
07-Jan-17 16:51 39.860061 -104.676466 268 5439ft 0kts
07-Jan-17 16:52 39.860061 -104.676466 268 5439ft 0kts
07-Jan-17 16:53 39.860061 -104.676466 268 5439ft 0kts
07-Jan-17 16:54 39.860061 -104.676466 268 5439ft 0kts
07-Jan-17 16:55 39.860061 -104.676466 268 5439ft 0kts
07-Jan-17 16:56 39.860079 -104.676884 278 5440ft 9kts
07-Jan-17 16:57 39.860258 -104.683111 273 5439ft 13kts
07-Jan-17 16:58 39.857531 -104.685061 179 5440ft 23kts
07-Jan-17 16:59 39.852576 -104.683996 180 5439ft 20kts
07-Jan-17 17:00 39.844944 -104.684101 179 5439ft 34kts
07-Jan-17 17:01 39.841792 -104.684093 183 5440ft 0kts
07-Jan-17 17:02 39.841792 -104.684093 183 5440ft 0kts
07-Jan-17 17:03 39.840694 -104.687377 269 5440ft 40kts
07-Jan-17 17:04 39.841034 -104.734501 272 6645ft 163kts
07-Jan-17 17:05 39.840658 -104.792615 266 8627ft 179kts
07-Jan-17 17:06 39.840429 -104.859099 269 9917ft 213kts
07-Jan-17 17:07 39.837723 -104.943274 271 10748ft 291kts
07-Jan-17 17:08 39.834168 -105.027638 256 10847ft 369kts
07-Jan-17 17:09 39.809094 -105.145147 254 12992ft 394kts
07-Jan-17 17:10 39.781856 -105.272285 259 16580ft 379kts
07-Jan-17 17:11 39.756302 -105.393572 259 19107ft 376kts
07-Jan-17 17:12 39.733907 -105.497824 258 19929ft 380kts
07-Jan-17 17:13 39.707559 -105.623896 259 20071ft 382kts
07-Jan-17 17:14 39.688902 -105.758891 263 20214ft 428kts
07-Jan-17 17:15 39.672551 -105.905517 262 20211ft 445kts
07-Jan-17 17:16 39.655920 -106.053691 262 20211ft 445kts
07-Jan-17 17:17 39.640812 -106.190416 261 20211ft 445kts
07-Jan-17 17:18 39.631113 -106.275467 262 20262ft 440kts
07-Jan-17 17:19 39.598328 -106.400845 249 20363ft 440kts
07-Jan-17 17:20 39.567834 -106.496662 248 20274ft 443kts
07-Jan-17 17:21 39.530656 -106.613329 247 19984ft 415kts
07-Jan-17 17:22 39.489079 -106.741618 247 17500ft 402kts
07-Jan-17 17:23 39.452677 -106.876763 232 17222ft 412kts
07-Jan-17 17:24 39.369968 -106.903879 158 14188ft 383kts
07-Jan-17 17:25 39.278713 -106.876192 167 10619ft 319kts
07-Jan-17 17:26 39.215706 -106.824158 143 9438ft 236kts
07-Jan-17 17:27 39.196306 -106.853982 314 8349ft 161kts
07-Jan-17 17:28 39.226314 -106.870188 338 7828ft 39kts
07-Jan-17 17:29 39.229116 -106.870510 78 7828ft 0kts
07-Jan-17 17:30 39.226131 -106.868840 161 7827ft 20kts
07-Jan-17 17:31 39.223443 -106.867450 158 7828ft 10kts
07-Jan-17 17:32 39.219885 -106.865138 161 7827ft 1kts

Navigation Log

Ident Type
1. KDEN Airport
2. DBL Navaid
3. KASE Airport